sensor_id;sensor_type;location;lat;lon;timestamp;pressure;altitude;pressure_sealevel;temperature;humidity
48358;BME280;41929;51.478;-0.026;2022-10-31T10:30:50;76512.75;;;-143.00;83.76
48358;BME280;41929;51.478;-0.026;2022-10-31T10:33:24;76424.00;;;-143.00;80.37
48358;BME280;41929;51.478;-0.026;2022-10-31T10:35:57;76406.22;;;-143.00;78.09
48358;BME280;41929;51.478;-0.026;2022-10-31T10:38:30;76408.22;;;-143.00;79.17
48358;BME280;41929;51.478;-0.026;2022-10-31T10:40:58;76364.81;;;-143.00;76.91
48358;BME280;41929;51.478;-0.026;2022-10-31T10:43:38;76370.72;;;-143.00;76.72
48358;BME280;41929;51.478;-0.026;2022-10-31T10:46:26;76281.97;;;-143.00;73.73
48358;BME280;41929;51.478;-0.026;2022-10-31T10:51:58;76293.81;;;-143.00;75.51
48358;BME280;41929;51.478;-0.026;2022-10-31T10:57:30;76199.13;;;-143.00;70.55
48358;BME280;41929;51.478;-0.026;2022-10-31T11:00:01;76199.13;;;-143.00;70.06
48358;BME280;41929;51.478;-0.026;2022-10-31T11:02:31;76203.06;;;-143.00;70.04
48358;BME280;41929;51.478;-0.026;2022-10-31T11:04:58;76260.28;;;-143.00;72.37
48358;BME280;41929;51.478;-0.026;2022-10-31T11:07:25;76165.59;;;-143.00;67.88
48358;BME280;41929;51.478;-0.026;2022-10-31T11:10:01;76260.28;;;-143.00;70.53
48358;BME280;41929;51.478;-0.026;2022-10-31T11:12:30;76191.25;;;-143.00;69.71
48358;BME280;41929;51.478;-0.026;2022-10-31T11:15:06;76114.31;;;-143.00;68.04
48358;BME280;41929;51.478;-0.026;2022-10-31T11:17:36;76041.34;;;-143.00;66.61
48358;BME280;41929;51.478;-0.026;2022-10-31T11:22:33;76157.72;;;-143.00;67.38
48358;BME280;41929;51.478;-0.026;2022-10-31T11:24:58;76199.13;;;-143.00;69.36
48358;BME280;41929;51.478;-0.026;2022-10-31T11:27:25;76274.09;;;-143.00;70.76
48358;BME280;41929;51.478;-0.026;2022-10-31T11:29:51;76258.31;;;-143.00;71.01
48358;BME280;41929;51.478;-0.026;2022-10-31T11:32:22;76321.41;;;-143.00;72.62
48358;BME280;41929;51.478;-0.026;2022-10-31T11:34:52;76400.31;;;-143.00;75.12
48358;BME280;41929;51.478;-0.026;2022-10-31T11:37:22;76416.09;;;-143.00;76.95
48358;BME280;41929;51.478;-0.026;2022-10-31T11:39:52;76382.56;;;-143.00;76.50
48358;BME280;41929;51.478;-0.026;2022-10-31T11:42:21;76356.94;;;-143.00;75.52
48358;BME280;41929;51.478;-0.026;2022-10-31T11:44:48;76327.34;;;-143.00;72.86
48358;BME280;41929;51.478;-0.026;2022-10-31T11:47:16;76315.50;;;-143.00;72.14
48358;BME280;41929;51.478;-0.026;2022-10-31T11:49:45;76303.66;;;-143.00;71.41
48358;BME280;41929;51.478;-0.026;2022-10-31T11:52:24;76309.59;;;-143.00;71.70
48358;BME280;41929;51.478;-0.026;2022-10-31T11:55:01;76341.16;;;-143.00;72.33
48358;BME280;41929;51.478;-0.026;2022-10-31T11:57:32;76291.84;;;-143.00;72.67
48358;BME280;41929;51.478;-0.026;2022-10-31T12:00:00;76299.72;;;-143.00;72.80
48358;BME280;41929;51.478;-0.026;2022-10-31T12:02:26;76331.28;;;-143.00;74.12
48358;BME280;41929;51.478;-0.026;2022-10-31T12:05:18;76329.31;;;-143.00;74.35
48358;BME280;41929;51.478;-0.026;2022-10-31T12:07:45;76333.25;;;-143.00;73.98
48358;BME280;41929;51.478;-0.026;2022-10-31T12:10:11;76295.78;;;-143.00;74.41
48358;BME280;41929;51.478;-0.026;2022-10-31T12:18:38;76315.50;;;-143.00;71.98
48358;BME280;41929;51.478;-0.026;2022-10-31T12:24:04;76327.34;;;-143.00;72.25
48358;BME280;41929;51.478;-0.026;2022-10-31T12:26:54;76311.56;;;-143.00;71.98
48358;BME280;41929;51.478;-0.026;2022-10-31T12:29:29;76280.00;;;-143.00;71.44
48358;BME280;41929;51.478;-0.026;2022-10-31T12:37:15;76254.34;;;-143.00;71.25
48358;BME280;41929;51.478;-0.026;2022-10-31T12:39:51;76285.91;;;-143.00;71.96
48358;BME280;41929;51.478;-0.026;2022-10-31T12:50:31;76293.81;;;-143.00;72.81
48358;BME280;41929;51.478;-0.026;2022-10-31T12:58:40;76258.31;;;-143.00;73.59
48358;BME280;41929;51.478;-0.026;2022-10-31T13:01:21;76264.22;;;-143.00;73.95
48358;BME280;41929;51.478;-0.026;2022-10-31T13:06:49;76234.63;;;-143.00;73.28
48358;BME280;41929;51.478;-0.026;2022-10-31T13:09:30;76248.44;;;-143.00;73.71
48358;BME280;41929;51.478;-0.026;2022-10-31T13:12:04;76266.19;;;-143.00;73.84
48358;BME280;41929;51.478;-0.026;2022-10-31T13:14:36;76244.50;;;-143.00;74.59
48358;BME280;41929;51.478;-0.026;2022-10-31T13:17:04;76242.53;;;-143.00;74.84
48358;BME280;41929;51.478;-0.026;2022-10-31T13:19:41;76250.41;;;-143.00;74.31
48358;BME280;41929;51.478;-0.026;2022-10-31T13:22:12;76222.81;;;-143.00;73.97
48358;BME280;41929;51.478;-0.026;2022-10-31T13:27:59;76224.78;;;-143.00;73.56
48358;BME280;41929;51.478;-0.026;2022-10-31T13:30:29;76216.88;;;-143.00;73.86
48358;BME280;41929;51.478;-0.026;2022-10-31T13:33:01;76191.25;;;-143.00;73.98
48358;BME280;41929;51.478;-0.026;2022-10-31T13:35:52;76230.69;;;-143.00;74.67
48358;BME280;41929;51.478;-0.026;2022-10-31T13:38:36;76224.78;;;-143.00;75.00
48358;BME280;41929;51.478;-0.026;2022-10-31T13:41:29;76220.84;;;-143.00;75.85
48358;BME280;41929;51.478;-0.026;2022-10-31T13:44:04;76220.84;;;-143.00;75.67
48358;BME280;41929;51.478;-0.026;2022-10-31T13:46:49;76214.91;;;-143.00;74.89
48358;BME280;41929;51.478;-0.026;2022-10-31T13:54:42;76177.44;;;-143.00;74.90
48358;BME280;41929;51.478;-0.026;2022-10-31T13:57:21;76185.31;;;-143.00;74.48
48358;BME280;41929;51.478;-0.026;2022-10-31T13:59:54;76193.22;;;-143.00;74.35
48358;BME280;41929;51.478;-0.026;2022-10-31T14:05:21;76216.88;;;-143.00;76.49
48358;BME280;41929;51.478;-0.026;2022-10-31T14:07:45;76212.94;;;-143.00;76.69
48358;BME280;41929;51.478;-0.026;2022-10-31T14:12:47;76212.94;;;-143.00;77.32
48358;BME280;41929;51.478;-0.026;2022-10-31T14:15:26;76191.25;;;-143.00;77.43
48358;BME280;41929;51.478;-0.026;2022-10-31T14:17:55;76181.38;;;-143.00;77.76
48358;BME280;41929;51.478;-0.026;2022-10-31T14:22:57;76189.28;;;-143.00;78.62
48358;BME280;41929;51.478;-0.026;2022-10-31T14:25:35;76195.19;;;-143.00;78.32
48358;BME280;41929;51.478;-0.026;2022-10-31T14:28:17;76189.28;;;-143.00;78.65
48358;BME280;41929;51.478;-0.026;2022-10-31T14:30:54;76189.28;;;-143.00;78.70
48358;BME280;41929;51.478;-0.026;2022-10-31T14:33:22;76199.13;;;-143.00;78.42
48358;BME280;41929;51.478;-0.026;2022-10-31T14:35:58;76203.06;;;-143.00;77.21
48358;BME280;41929;51.478;-0.026;2022-10-31T14:41:22;76195.19;;;-143.00;77.46
48358;BME280;41929;51.478;-0.026;2022-10-31T14:52:07;76203.06;;;-143.00;79.50
48358;BME280;41929;51.478;-0.026;2022-10-31T14:54:46;76214.91;;;-143.00;80.39
48358;BME280;41929;51.478;-0.026;2022-10-31T14:59:47;76214.91;;;-143.00;81.17
48358;BME280;41929;51.478;-0.026;2022-10-31T15:02:41;76230.69;;;-143.00;81.42
48358;BME280;41929;51.478;-0.026;2022-10-31T15:05:08;76226.75;;;-143.00;82.00
48358;BME280;41929;51.478;-0.026;2022-10-31T15:07:34;76218.84;;;-143.00;82.33
48358;BME280;41929;51.478;-0.026;2022-10-31T15:10:05;76222.81;;;-143.00;82.81
48358;BME280;41929;51.478;-0.026;2022-10-31T15:12:33;76222.81;;;-143.00;83.19
48358;BME280;41929;51.478;-0.026;2022-10-31T15:15:17;76230.69;;;-143.00;83.89
48358;BME280;41929;51.478;-0.026;2022-10-31T15:17:45;76236.59;;;-143.00;84.58
48358;BME280;41929;51.478;-0.026;2022-10-31T15:20:19;76226.75;;;-143.00;84.79
48358;BME280;41929;51.478;-0.026;2022-10-31T15:22:57;76222.81;;;-143.00;85.08
48358;BME280;41929;51.478;-0.026;2022-10-31T15:25:26;76222.81;;;-143.00;85.27
48358;BME280;41929;51.478;-0.026;2022-10-31T15:27:53;76228.72;;;-143.00;85.62
48358;BME280;41929;51.478;-0.026;2022-10-31T15:30:27;76232.66;;;-143.00;86.13
48358;BME280;41929;51.478;-0.026;2022-10-31T15:32:53;76232.66;;;-143.00;86.67
48358;BME280;41929;51.478;-0.026;2022-10-31T15:35:28;76224.78;;;-143.00;86.31
48358;BME280;41929;51.478;-0.026;2022-10-31T15:37:55;76212.94;;;-143.00;86.58
48358;BME280;41929;51.478;-0.026;2022-10-31T15:40:25;76207.03;;;-143.00;86.44
48358;BME280;41929;51.478;-0.026;2022-10-31T15:42:54;76201.09;;;-143.00;86.62
48358;BME280;41929;51.478;-0.026;2022-10-31T15:45:25;76201.09;;;-143.00;86.27
48358;BME280;41929;51.478;-0.026;2022-10-31T15:48:00;76201.09;;;-143.00;86.84
48358;BME280;41929;51.478;-0.026;2022-10-31T15:50:34;76197.16;;;-143.00;87.09
48358;BME280;41929;51.478;-0.026;2022-10-31T15:53:01;76195.19;;;-143.00;87.25
48358;BME280;41929;51.478;-0.026;2022-10-31T15:55:29;76185.31;;;-143.00;86.72
48358;BME280;41929;51.478;-0.026;2022-10-31T15:58:00;76191.25;;;-143.00;86.82
48358;BME280;41929;51.478;-0.026;2022-10-31T16:00:32;76179.41;;;-143.00;87.18
48358;BME280;41929;51.478;-0.026;2022-10-31T16:05:47;76173.50;;;-143.00;86.72
48358;BME280;41929;51.478;-0.026;2022-10-31T16:10:55;76185.31;;;-143.00;87.17
48358;BME280;41929;51.478;-0.026;2022-10-31T16:13:26;76173.50;;;-143.00;86.71
48358;BME280;41929;51.478;-0.026;2022-10-31T16:15:57;76167.56;;;-143.00;86.84
48358;BME280;41929;51.478;-0.026;2022-10-31T16:18:25;76169.56;;;-143.00;86.88
48358;BME280;41929;51.478;-0.026;2022-10-31T16:20:52;76165.59;;;-143.00;86.48
48358;BME280;41929;51.478;-0.026;2022-10-31T16:23:22;76169.56;;;-143.00;86.49
48358;BME280;41929;51.478;-0.026;2022-10-31T16:28:26;76169.56;;;-143.00;86.56
48358;BME280;41929;51.478;-0.026;2022-10-31T16:30:54;76147.84;;;-143.00;86.13
48358;BME280;41929;51.478;-0.026;2022-10-31T16:33:32;76141.94;;;-143.00;85.95
48358;BME280;41929;51.478;-0.026;2022-10-31T16:38:56;76130.09;;;-143.00;85.91
48358;BME280;41929;51.478;-0.026;2022-10-31T16:41:22;76124.19;;;-143.00;86.06
48358;BME280;41929;51.478;-0.026;2022-10-31T16:43:48;76116.28;;;-143.00;85.99
48358;BME280;41929;51.478;-0.026;2022-10-31T16:46:24;76122.22;;;-143.00;86.28
48358;BME280;41929;51.478;-0.026;2022-10-31T16:48:50;76114.31;;;-143.00;86.59
48358;BME280;41929;51.478;-0.026;2022-10-31T16:51:15;76104.47;;;-143.00;86.88
48358;BME280;41929;51.478;-0.026;2022-10-31T16:53:41;76108.41;;;-143.00;87.13
48358;BME280;41929;51.478;-0.026;2022-10-31T16:56:14;76106.44;;;-143.00;87.65
48358;BME280;41929;51.478;-0.026;2022-10-31T16:58:40;76102.50;;;-143.00;88.03
48358;BME280;41929;51.478;-0.026;2022-10-31T17:01:06;76104.47;;;-143.00;88.90
48358;BME280;41929;51.478;-0.026;2022-10-31T17:03:32;76104.47;;;-143.00;89.42
48358;BME280;41929;51.478;-0.026;2022-10-31T17:05:57;76100.53;;;-143.00;90.21
48358;BME280;41929;51.478;-0.026;2022-10-31T17:08:23;76110.38;;;-143.00;91.02
48358;BME280;41929;51.478;-0.026;2022-10-31T17:10:54;76122.22;;;-143.00;92.12
48358;BME280;41929;51.478;-0.026;2022-10-31T17:13:22;76122.22;;;-143.00;92.64
48358;BME280;41929;51.478;-0.026;2022-10-31T17:15:53;76134.03;;;-143.00;93.91
48358;BME280;41929;51.478;-0.026;2022-10-31T17:18:19;76145.88;;;-143.00;95.50
48358;BME280;41929;51.478;-0.026;2022-10-31T17:20:45;76145.88;;;-143.00;97.03
48358;BME280;41929;51.478;-0.026;2022-10-31T17:23:12;76161.66;;;-143.00;98.27
48358;BME280;41929;51.478;-0.026;2022-10-31T17:25:38;76151.78;;;-143.00;99.44
48358;BME280;41929;51.478;-0.026;2022-10-31T17:28:04;76149.81;;;-143.00;100.00
48358;BME280;41929;51.478;-0.026;2022-10-31T17:30:32;76173.50;;;-143.00;100.00
48358;BME280;41929;51.478;-0.026;2022-10-31T17:32:57;76201.09;;;-143.00;100.00
48358;BME280;41929;51.478;-0.026;2022-10-31T17:37:52;76234.63;;;-143.00;100.00
48358;BME280;41929;51.478;-0.026;2022-10-31T17:40:20;76246.47;;;-143.00;100.00
48358;BME280;41929;51.478;-0.026;2022-10-31T17:47:56;76258.31;;;-143.00;100.00
48358;BME280;41929;51.478;-0.026;2022-10-31T17:50:23;76254.34;;;-143.00;100.00
48358;BME280;41929;51.478;-0.026;2022-10-31T17:52:50;76260.28;;;-143.00;100.00
48358;BME280;41929;51.478;-0.026;2022-10-31T17:55:16;76250.41;;;-143.00;100.00
48358;BME280;41929;51.478;-0.026;2022-10-31T18:00:19;76218.84;;;-143.00;100.00
48358;BME280;41929;51.478;-0.026;2022-10-31T18:02:46;76209.00;;;-143.00;100.00
48358;BME280;41929;51.478;-0.026;2022-10-31T18:05:11;76177.44;;;-143.00;100.00
48358;BME280;41929;51.478;-0.026;2022-10-31T18:07:37;76171.53;;;-143.00;100.00
48358;BME280;41929;51.478;-0.026;2022-10-31T18:10:03;76167.56;;;-143.00;100.00
48358;BME280;41929;51.478;-0.026;2022-10-31T18:12:29;76169.56;;;-143.00;100.00
48358;BME280;41929;51.478;-0.026;2022-10-31T18:14:56;76157.72;;;-143.00;100.00
48358;BME280;41929;51.478;-0.026;2022-10-31T18:17:22;76163.63;;;-143.00;100.00
48358;BME280;41929;51.478;-0.026;2022-10-31T18:19:47;76153.78;;;-143.00;100.00
48358;BME280;41929;51.478;-0.026;2022-10-31T18:22:13;76136.03;;;-143.00;100.00
48358;BME280;41929;51.478;-0.026;2022-10-31T18:24:38;76118.28;;;-143.00;100.00
48358;BME280;41929;51.478;-0.026;2022-10-31T18:27:06;76110.38;;;-143.00;100.00
48358;BME280;41929;51.478;-0.026;2022-10-31T18:29:31;76112.34;;;-143.00;100.00
48358;BME280;41929;51.478;-0.026;2022-10-31T18:31:56;76106.44;;;-143.00;100.00
48358;BME280;41929;51.478;-0.026;2022-10-31T18:34:22;76098.53;;;-143.00;100.00
48358;BME280;41929;51.478;-0.026;2022-10-31T18:36:48;76090.66;;;-143.00;100.00
48358;BME280;41929;51.478;-0.026;2022-10-31T18:39:14;76084.75;;;-143.00;100.00
48358;BME280;41929;51.478;-0.026;2022-10-31T18:41:39;76092.63;;;-143.00;100.00
48358;BME280;41929;51.478;-0.026;2022-10-31T18:44:05;76078.81;;;-143.00;100.00
48358;BME280;41929;51.478;-0.026;2022-10-31T18:49:06;76065.00;;;-143.00;100.00
48358;BME280;41929;51.478;-0.026;2022-10-31T18:56:42;76031.50;;;-143.00;100.00
48358;BME280;41929;51.478;-0.026;2022-10-31T18:59:10;76003.88;;;-143.00;100.00
48358;BME280;41929;51.478;-0.026;2022-10-31T19:01:35;75992.03;;;-143.00;100.00
48358;BME280;41929;51.478;-0.026;2022-10-31T19:04:01;75988.09;;;-143.00;100.00
48358;BME280;41929;51.478;-0.026;2022-10-31T19:06:26;75962.47;;;-143.00;100.00
48358;BME280;41929;51.478;-0.026;2022-10-31T19:09:02;75948.66;;;-143.00;100.00
48358;BME280;41929;51.478;-0.026;2022-10-31T19:11:31;75948.66;;;-143.00;100.00
48358;BME280;41929;51.478;-0.026;2022-10-31T19:13:57;75948.66;;;-143.00;100.00
48358;BME280;41929;51.478;-0.026;2022-10-31T19:16:22;75930.91;;;-143.00;100.00
48358;BME280;41929;51.478;-0.026;2022-10-31T19:18:47;75923.03;;;-143.00;100.00
48358;BME280;41929;51.478;-0.026;2022-10-31T19:21:15;75921.03;;;-143.00;100.00
48358;BME280;41929;51.478;-0.026;2022-10-31T19:23:42;75913.16;;;-143.00;100.00
48358;BME280;41929;51.478;-0.026;2022-10-31T19:26:08;75903.28;;;-143.00;100.00
48358;BME280;41929;51.478;-0.026;2022-10-31T19:28:34;75903.28;;;-143.00;100.00
48358;BME280;41929;51.478;-0.026;2022-10-31T19:31:00;75897.38;;;-143.00;100.00
48358;BME280;41929;51.478;-0.026;2022-10-31T19:33:26;75893.44;;;-143.00;100.00
48358;BME280;41929;51.478;-0.026;2022-10-31T19:41:14;75883.56;;;-143.00;100.00
48358;BME280;41929;51.478;-0.026;2022-10-31T19:43:42;75873.72;;;-143.00;100.00
48358;BME280;41929;51.478;-0.026;2022-10-31T19:46:08;75873.72;;;-143.00;100.00
48358;BME280;41929;51.478;-0.026;2022-10-31T19:48:38;75865.81;;;-143.00;100.00
48358;BME280;41929;51.478;-0.026;2022-10-31T19:56:16;75852.03;;;-143.00;100.00
48358;BME280;41929;51.478;-0.026;2022-10-31T19:58:44;75852.03;;;-143.00;100.00
48358;BME280;41929;51.478;-0.026;2022-10-31T20:01:16;75850.03;;;-143.00;100.00
48358;BME280;41929;51.478;-0.026;2022-10-31T20:03:42;75834.28;;;-143.00;100.00
48358;BME280;41929;51.478;-0.026;2022-10-31T20:08:45;75836.25;;;-143.00;100.00
48358;BME280;41929;51.478;-0.026;2022-10-31T20:11:11;75846.09;;;-143.00;100.00
48358;BME280;41929;51.478;-0.026;2022-10-31T20:13:36;75842.16;;;-143.00;100.00
48358;BME280;41929;51.478;-0.026;2022-10-31T20:16:09;75836.25;;;-143.00;100.00
48358;BME280;41929;51.478;-0.026;2022-10-31T20:18:36;75834.28;;;-143.00;100.00
48358;BME280;41929;51.478;-0.026;2022-10-31T20:23:38;75826.38;;;-143.00;100.00
48358;BME280;41929;51.478;-0.026;2022-10-31T20:28:38;75818.50;;;-143.00;100.00
48358;BME280;41929;51.478;-0.026;2022-10-31T20:31:09;75814.56;;;-143.00;100.00
48358;BME280;41929;51.478;-0.026;2022-10-31T20:33:35;75812.56;;;-143.00;100.00
48358;BME280;41929;51.478;-0.026;2022-10-31T20:36:03;75806.66;;;-143.00;100.00
48358;BME280;41929;51.478;-0.026;2022-10-31T20:38:29;75786.94;;;-143.00;100.00
48358;BME280;41929;51.478;-0.026;2022-10-31T20:41:02;75786.94;;;-143.00;100.00
48358;BME280;41929;51.478;-0.026;2022-10-31T20:43:28;75779.03;;;-143.00;100.00
48358;BME280;41929;51.478;-0.026;2022-10-31T20:48:26;75775.09;;;-143.00;100.00
48358;BME280;41929;51.478;-0.026;2022-10-31T20:50:56;75779.03;;;-143.00;100.00
48358;BME280;41929;51.478;-0.026;2022-10-31T20:53:22;75763.28;;;-143.00;100.00
48358;BME280;41929;51.478;-0.026;2022-10-31T21:00:57;75763.28;;;-143.00;100.00
48358;BME280;41929;51.478;-0.026;2022-10-31T21:03:24;75757.34;;;-143.00;100.00
48358;BME280;41929;51.478;-0.026;2022-10-31T21:08:49;75747.50;;;-143.00;100.00
48358;BME280;41929;51.478;-0.026;2022-10-31T21:11:18;75735.66;;;-143.00;100.00
48358;BME280;41929;51.478;-0.026;2022-10-31T21:13:46;75723.81;;;-143.00;100.00
48358;BME280;41929;51.478;-0.026;2022-10-31T21:16:16;75715.94;;;-143.00;100.00
48358;BME280;41929;51.478;-0.026;2022-10-31T21:26:23;75713.97;;;-143.00;100.00
48358;BME280;41929;51.478;-0.026;2022-10-31T21:28:51;75706.09;;;-143.00;100.00
48358;BME280;41929;51.478;-0.026;2022-10-31T21:31:17;75696.22;;;-143.00;100.00
48358;BME280;41929;51.478;-0.026;2022-10-31T21:33:43;75698.19;;;-143.00;100.00
48358;BME280;41929;51.478;-0.026;2022-10-31T21:36:09;75704.09;;;-143.00;100.00
48358;BME280;41929;51.478;-0.026;2022-10-31T21:38:35;75712.00;;;-143.00;100.00
48358;BME280;41929;51.478;-0.026;2022-10-31T21:41:05;75719.88;;;-143.00;100.00
48358;BME280;41929;51.478;-0.026;2022-10-31T21:43:34;75725.81;;;-143.00;100.00
48358;BME280;41929;51.478;-0.026;2022-10-31T21:46:11;75727.78;;;-143.00;100.00
48358;BME280;41929;51.478;-0.026;2022-10-31T21:48:37;57404.47;;;-143.00;100.00
48358;BME280;41929;51.478;-0.026;2022-10-31T21:51:06;57404.47;;;-143.00;100.00
48358;BME280;41929;51.478;-0.026;2022-10-31T21:53:33;57404.47;;;-143.00;100.00
48358;BME280;41929;51.478;-0.026;2022-10-31T21:56:17;57404.47;;;-143.00;100.00
48358;BME280;41929;51.478;-0.026;2022-10-31T21:58:43;57404.47;;;-143.00;100.00
48358;BME280;41929;51.478;-0.026;2022-10-31T22:01:08;57404.47;;;-143.00;100.00
48358;BME280;41929;51.478;-0.026;2022-10-31T22:03:35;57404.47;;;-143.00;100.00
48358;BME280;41929;51.478;-0.026;2022-10-31T22:06:02;57404.47;;;-143.00;100.00
48358;BME280;41929;51.478;-0.026;2022-10-31T22:08:28;57404.47;;;-143.00;100.00
48358;BME280;41929;51.478;-0.026;2022-10-31T22:10:53;57404.47;;;-143.00;100.00
48358;BME280;41929;51.478;-0.026;2022-10-31T22:13:18;57404.47;;;-143.00;100.00
48358;BME280;41929;51.478;-0.026;2022-10-31T22:15:44;57404.47;;;-143.00;100.00
48358;BME280;41929;51.478;-0.026;2022-10-31T22:18:11;57404.47;;;-143.00;100.00
48358;BME280;41929;51.478;-0.026;2022-10-31T22:20:36;57404.47;;;-143.00;100.00
48358;BME280;41929;51.478;-0.026;2022-10-31T22:23:01;57404.47;;;-143.00;100.00
48358;BME280;41929;51.478;-0.026;2022-10-31T22:25:27;57404.47;;;-143.00;100.00
48358;BME280;41929;51.478;-0.026;2022-10-31T22:27:52;57404.47;;;-143.00;100.00
48358;BME280;41929;51.478;-0.026;2022-10-31T22:32:52;57404.47;;;-143.00;100.00
48358;BME280;41929;51.478;-0.026;2022-10-31T22:35:18;57404.47;;;-143.00;100.00
48358;BME280;41929;51.478;-0.026;2022-10-31T22:37:44;57404.47;;;-143.00;100.00
48358;BME280;41929;51.478;-0.026;2022-10-31T22:40:10;57404.47;;;-143.00;100.00
48358;BME280;41929;51.478;-0.026;2022-10-31T22:42:35;57404.47;;;-143.00;100.00
48358;BME280;41929;51.478;-0.026;2022-10-31T22:45:00;57404.47;;;-143.00;100.00
48358;BME280;41929;51.478;-0.026;2022-10-31T22:47:27;57404.47;;;-143.00;100.00
48358;BME280;41929;51.478;-0.026;2022-10-31T22:49:52;57404.47;;;-143.00;100.00
48358;BME280;41929;51.478;-0.026;2022-10-31T22:52:17;57404.47;;;-143.00;100.00
48358;BME280;41929;51.478;-0.026;2022-10-31T22:54:42;57404.47;;;-143.00;100.00
48358;BME280;41929;51.478;-0.026;2022-10-31T22:57:08;57404.47;;;-143.00;100.00
48358;BME280;41929;51.478;-0.026;2022-10-31T22:59:33;57404.47;;;-143.00;100.00
48358;BME280;41929;51.478;-0.026;2022-10-31T23:01:59;57404.47;;;-143.00;100.00
48358;BME280;41929;51.478;-0.026;2022-10-31T23:04:24;57404.47;;;-143.00;100.00
48358;BME280;41929;51.478;-0.026;2022-10-31T23:06:49;57404.47;;;-143.00;100.00
48358;BME280;41929;51.478;-0.026;2022-10-31T23:09:15;57404.47;;;-143.00;100.00
48358;BME280;41929;51.478;-0.026;2022-10-31T23:11:41;57404.47;;;-143.00;100.00
48358;BME280;41929;51.478;-0.026;2022-10-31T23:14:11;57404.47;;;-143.00;100.00
48358;BME280;41929;51.478;-0.026;2022-10-31T23:19:06;57404.47;;;-143.00;100.00
48358;BME280;41929;51.478;-0.026;2022-10-31T23:21:38;57404.47;;;-143.00;100.00
48358;BME280;41929;51.478;-0.026;2022-10-31T23:24:23;57404.47;;;-143.00;100.00
48358;BME280;41929;51.478;-0.026;2022-10-31T23:26:50;57404.47;;;-143.00;100.00
48358;BME280;41929;51.478;-0.026;2022-10-31T23:29:48;57404.47;;;-143.00;100.00
48358;BME280;41929;51.478;-0.026;2022-10-31T23:32:32;57404.47;;;-143.00;100.00
48358;BME280;41929;51.478;-0.026;2022-10-31T23:35:07;57404.47;;;-143.00;100.00
48358;BME280;41929;51.478;-0.026;2022-10-31T23:37:34;57404.47;;;-143.00;100.00
48358;BME280;41929;51.478;-0.026;2022-10-31T23:40:00;57404.47;;;-143.00;100.00
48358;BME280;41929;51.478;-0.026;2022-10-31T23:42:27;57404.47;;;-143.00;100.00
48358;BME280;41929;51.478;-0.026;2022-10-31T23:44:52;57404.47;;;-143.00;100.00
48358;BME280;41929;51.478;-0.026;2022-10-31T23:47:19;57404.47;;;-143.00;100.00
48358;BME280;41929;51.478;-0.026;2022-10-31T23:49:45;57404.47;;;-143.00;100.00
48358;BME280;41929;51.478;-0.026;2022-10-31T23:52:11;57404.47;;;-143.00;100.00
48358;BME280;41929;51.478;-0.026;2022-10-31T23:54:37;57404.47;;;-143.00;100.00
48358;BME280;41929;51.478;-0.026;2022-10-31T23:57:03;57404.47;;;-143.00;100.00
48358;BME280;41929;51.478;-0.026;2022-10-31T23:59:28;57404.47;;;-143.00;100.00
